Time;durP1;ratioP1;P1;durP2;ratioP2;P2;SDS_P1;SDS_P2;PMS_P1;PMS_P2;Temp;Humidity;BMP_temperature;BMP_pressure;BME280_temperature;BME280_humidity;BME280_pressure;Samples;Min_cycle;Max_cycle;Signal;HPM_P1;HPM_P2
2024/01/14 00:00:37;;;;;;;;;;;;;;;22.09;16.52;97806.81;4903260;29;1271;-71
2024/01/14 00:03:03;;;;;;;;;;;;;;;22.20;16.31;97792.31;4903561;29;962;-71
2024/01/14 00:05:29;;;;;;;;;;;;;;;22.23;16.39;97789.38;4903118;29;1012;-71
2024/01/14 00:07:55;;;;;;;;;;;;;;;22.28;16.45;97800.16;4903244;29;1011;-72
2024/01/14 00:10:21;;;;;;;;;;;;;;;22.21;16.37;97791.06;4933240;29;1013;-71
2024/01/14 00:12:47;;;;;;;;;;;;;;;22.23;16.65;97789.38;4937930;29;943;-72
2024/01/14 00:15:14;;;;;;;;;;;;;;;22.28;16.43;97785.97;4938000;29;1966;-71
2024/01/14 00:17:40;;;;;;;;;;;;;;;22.05;16.51;97789.91;4953669;29;1372;-71
2024/01/14 00:20:06;;;;;;;;;;;;;;;22.15;16.50;97782.34;4938189;29;930;-71
2024/01/14 00:22:31;;;;;;;;;;;;;;;22.14;16.70;97774.31;4953587;29;1186;-71
2024/01/14 00:24:57;;;;;;;;;;;;;;;22.40;16.30;97763.72;4937723;29;1647;-71
2024/01/14 00:27:23;;;;;;;;;;;;;;;22.28;16.53;97763.31;4908024;29;1150;-72
2024/01/14 00:29:49;;;;;;;;;;;;;;;22.38;16.37;97778.34;4974125;28;1050;-72
2024/01/14 00:32:15;;;;;;;;;;;;;;;22.28;16.45;97779.50;5015290;28;1051;-72
2024/01/14 00:34:41;;;;;;;;;;;;;;;22.36;16.30;97775.97;4966214;28;1147;-72
2024/01/14 00:37:06;;;;;;;;;;;;;;;22.32;16.61;97778.13;4982270;28;1914;-72
2024/01/14 00:39:36;;;;;;;;;;;;;;;22.21;16.80;97774.06;5015055;28;1011;-71
2024/01/14 00:42:01;;;;;;;;;;;;;;;22.14;16.61;97774.31;5014792;28;1085;-71
2024/01/14 00:44:27;;;;;;;;;;;;;;;22.35;16.67;97759.44;5014963;28;920;-72
2024/01/14 00:46:52;;;;;;;;;;;;;;;22.11;16.74;97770.31;5015056;28;969;-71
2024/01/14 00:49:18;;;;;;;;;;;;;;;22.29;16.57;97767.72;4998072;28;1181;-71
2024/01/14 00:51:44;;;;;;;;;;;;;;;22.35;16.67;97763.06;5018131;28;989;-71
2024/01/14 00:54:09;;;;;;;;;;;;;;;22.11;16.64;97759.00;5002931;28;929;-71
2024/01/14 00:56:35;;;;;;;;;;;;;;;22.23;16.61;97760.25;5019016;28;1993;-71
2024/01/14 00:59:00;;;;;;;;;;;;;;;22.47;16.49;97760.66;5002566;28;1017;-71
2024/01/14 01:01:26;;;;;;;;;;;;;;;22.38;16.53;97760.53;5002558;28;908;-71
2024/01/14 01:03:51;;;;;;;;;;;;;;;22.11;16.76;97776.00;5002614;28;1231;-71
2024/01/14 01:06:17;;;;;;;;;;;;;;;22.35;16.50;97777.22;5002448;28;1206;-72
2024/01/14 01:08:43;;;;;;;;;;;;;;;22.52;16.40;97769.38;5019424;28;932;-71
2024/01/14 01:11:09;;;;;;;;;;;;;;;22.31;16.65;97768.03;5034796;28;1198;-71
2024/01/14 01:13:34;;;;;;;;;;;;;;;22.24;16.63;97768.28;5002431;28;980;-71
2024/01/14 01:16:00;;;;;;;;;;;;;;;22.01;17.00;97760.09;5018811;28;1902;-71
2024/01/14 01:18:25;;;;;;;;;;;;;;;22.08;16.76;97755.00;5018847;28;926;-71
2024/01/14 01:20:51;;;;;;;;;;;;;;;22.31;16.84;97762.38;5018726;28;968;-71
2024/01/14 01:23:17;;;;;;;;;;;;;;;22.38;16.79;97760.53;5018664;28;946;-72
2024/01/14 01:25:42;;;;;;;;;;;;;;;22.14;16.88;97763.75;5019040;28;938;-71
2024/01/14 01:28:09;;;;;;;;;;;;;;;22.43;16.68;97765.63;5035122;28;1462;-71
2024/01/14 01:30:35;;;;;;;;;;;;;;;22.24;16.82;97756.94;5036343;28;903;-71
2024/01/14 01:33:00;;;;;;;;;;;;;;;22.23;17.03;97768.75;5018363;28;925;-71
2024/01/14 01:35:26;;;;;;;;;;;;;;;22.32;16.90;97761.13;5018315;28;1973;-72
2024/01/14 01:37:52;;;;;;;;;;;;;;;22.61;16.54;97760.16;5036100;28;909;-71
2024/01/14 01:40:17;;;;;;;;;;;;;;;22.27;16.67;97749.56;5002283;28;1703;-72
2024/01/14 01:42:43;;;;;;;;;;;;;;;22.30;16.83;97738.13;5035838;28;905;-71
2024/01/14 01:45:09;;;;;;;;;;;;;;;22.38;16.86;97727.31;4997200;28;1227;-72
2024/01/14 01:47:34;;;;;;;;;;;;;;;22.44;16.81;97736.06;4997901;28;957;-71
2024/01/14 01:50:00;;;;;;;;;;;;;;;22.20;16.93;97732.81;5013825;28;1022;-71
2024/01/14 01:52:25;;;;;;;;;;;;;;;22.01;17.33;97726.09;4997308;28;968;-71
2024/01/14 01:54:51;;;;;;;;;;;;;;;22.26;16.96;97726.09;4997506;28;1906;-71
2024/01/14 01:57:17;;;;;;;;;;;;;;;22.34;16.98;97727.47;4981079;28;1312;-72
2024/01/14 01:59:43;;;;;;;;;;;;;;;22.40;16.73;97724.03;4997160;28;1591;-71
2024/01/14 02:02:08;;;;;;;;;;;;;;;22.51;16.83;97721.63;4997175;28;1170;-72
2024/01/14 02:04:34;;;;;;;;;;;;;;;22.31;16.90;97704.91;4997600;28;948;-71
2024/01/14 02:07:00;;;;;;;;;;;;;;;22.20;16.79;97702.44;4993609;28;1025;-71
2024/01/14 02:09:25;;;;;;;;;;;;;;;22.26;16.88;97697.75;4958490;28;1179;-71
2024/01/14 02:11:51;;;;;;;;;;;;;;;22.30;16.90;97681.44;4974198;28;1250;-71
2024/01/14 02:14:16;;;;;;;;;;;;;;;22.25;17.14;97684.06;4958626;28;1017;-71
2024/01/14 02:16:42;;;;;;;;;;;;;;;22.41;16.99;97680.28;4958345;28;1906;-71
2024/01/14 02:19:07;;;;;;;;;;;;;;;22.42;16.99;97676.19;4958584;28;1014;-72
2024/01/14 02:21:38;;;;;;;;;;;;;;;22.48;17.00;97675.13;4958398;28;931;-72
2024/01/14 02:24:22;;;;;;;;;;;;;;;22.45;16.77;97663.94;4945036;28;1039;-72
2024/01/14 02:26:47;;;;;;;;;;;;;;;22.20;17.07;97654.25;4978841;28;1081;-72
2024/01/14 02:29:13;;;;;;;;;;;;;;;22.36;16.95;97656.13;4978444;28;1015;-72
2024/01/14 02:31:39;;;;;;;;;;;;;;;22.26;17.02;97662.97;4978356;28;1037;-72
2024/01/14 02:34:06;;;;;;;;;;;;;;;22.12;17.20;97658.56;4961927;28;998;-72
2024/01/14 02:36:35;;;;;;;;;;;;;;;22.08;17.23;97666.38;4962223;28;1978;-71
2024/01/14 02:39:00;;;;;;;;;;;;;;;22.36;16.86;97668.25;4922306;29;1151;-71
2024/01/14 02:41:26;;;;;;;;;;;;;;;22.34;17.03;97652.97;4974936;28;940;-71
2024/01/14 02:43:51;;;;;;;;;;;;;;;22.33;16.94;97651.41;4977834;28;1027;-72
2024/01/14 02:46:17;;;;;;;;;;;;;;;22.31;17.16;97649.00;4978467;28;1010;-72
2024/01/14 02:48:42;;;;;;;;;;;;;;;22.36;16.82;97645.56;4939221;29;1093;-71
2024/01/14 02:51:08;;;;;;;;;;;;;;;22.41;17.11;97657.59;4939570;29;937;-71
2024/01/14 02:53:34;;;;;;;;;;;;;;;22.45;17.07;97652.59;4882760;29;1130;-71
2024/01/14 02:55:59;;;;;;;;;;;;;;;22.31;17.03;97659.53;4882376;29;1903;-72
2024/01/14 02:58:25;;;;;;;;;;;;;;;22.43;17.10;97653.03;4882507;29;1302;-71
2024/01/14 03:00:50;;;;;;;;;;;;;;;22.53;16.83;97654.69;4882731;29;1290;-71
2024/01/14 03:03:16;;;;;;;;;;;;;;;22.42;17.04;97659.16;4882418;29;1186;-71
2024/01/14 03:05:42;;;;;;;;;;;;;;;22.41;16.98;97663.25;4882472;29;988;-72
2024/01/14 03:08:08;;;;;;;;;;;;;;;22.30;17.31;97667.25;4882469;29;978;-71
2024/01/14 03:10:33;;;;;;;;;;;;;;;22.20;17.13;97676.13;4882260;29;1058;-72
2024/01/14 03:12:59;;;;;;;;;;;;;;;22.20;17.48;97671.25;4882335;29;1008;-71
2024/01/14 03:15:24;;;;;;;;;;;;;;;22.30;17.16;97664.44;4886718;29;1907;-71
2024/01/14 03:17:50;;;;;;;;;;;;;;;22.35;17.33;97663.84;4922773;29;1027;-71
2024/01/14 03:20:15;;;;;;;;;;;;;;;22.45;17.07;97669.59;4951342;28;1179;-71
2024/01/14 03:22:42;;;;;;;;;;;;;;;22.01;17.44;97664.56;4961142;28;944;-71
2024/01/14 03:25:08;;;;;;;;;;;;;;;21.71;17.86;97656.66;4989479;28;1145;-71
2024/01/14 03:27:33;;;;;;;;;;;;;;;21.68;17.80;97657.59;5020666;28;894;-72
2024/01/14 03:29:59;;;;;;;;;;;;;;;21.42;18.19;97653.97;5038651;28;921;-71
2024/01/14 03:32:25;;;;;;;;;;;;;;;21.86;17.96;97657.78;5038047;28;892;-71
2024/01/14 03:34:50;;;;;;;;;;;;;;;22.05;17.49;97658.78;5036473;28;1142;-71
2024/01/14 03:37:16;;;;;;;;;;;;;;;22.25;17.60;97650.84;5004488;28;1906;-71
2024/01/14 03:39:42;;;;;;;;;;;;;;;22.33;17.18;97643.69;4976862;28;1087;-72
2024/01/14 03:42:07;;;;;;;;;;;;;;;22.05;17.46;97641.78;4976684;28;941;-72
2024/01/14 03:44:33;;;;;;;;;;;;;;;22.21;17.55;97644.50;4960934;28;968;-72
2024/01/14 03:46:58;;;;;;;;;;;;;;;22.09;17.52;97637.59;4977113;28;940;-71
2024/01/14 03:49:24;;;;;;;;;;;;;;;22.20;17.35;97642.91;4960897;28;1026;-71
2024/01/14 03:51:50;;;;;;;;;;;;;;;22.22;17.61;97634.72;4960823;28;954;-71
2024/01/14 03:54:15;;;;;;;;;;;;;;;22.29;17.17;97640.16;4976537;28;932;-71
2024/01/14 03:56:41;;;;;;;;;;;;;;;22.42;17.24;97642.16;4928367;28;2247;-71
2024/01/14 03:59:06;;;;;;;;;;;;;;;22.09;17.64;97637.59;4960256;28;1095;-72
2024/01/14 04:01:32;;;;;;;;;;;;;;;22.23;17.67;97638.38;4960715;28;963;-72
2024/01/14 04:03:57;;;;;;;;;;;;;;;22.25;17.53;97633.84;4976638;28;1063;-71
2024/01/14 04:06:23;;;;;;;;;;;;;;;22.31;17.25;97626.31;4960529;28;1235;-71
2024/01/14 04:08:49;;;;;;;;;;;;;;;22.26;17.47;97624.06;4928563;28;1012;-72
2024/01/14 04:11:14;;;;;;;;;;;;;;;22.34;17.27;97618.97;4972643;28;1640;-73
2024/01/14 04:13:40;;;;;;;;;;;;;;;22.34;17.47;97619.75;5015674;28;890;-73
2024/01/14 04:16:07;;;;;;;;;;;;;;;22.31;17.21;97619.88;4976073;28;1898;-74
2024/01/14 04:18:33;;;;;;;;;;;;;;;22.19;17.46;97624.34;4962060;28;980;-72
2024/01/14 04:20:58;;;;;;;;;;;;;;;22.38;17.33;97613.94;4979181;28;1348;-72
2024/01/14 04:23:24;;;;;;;;;;;;;;;22.47;17.16;97601.88;4995799;28;950;-73
2024/01/14 04:25:50;;;;;;;;;;;;;;;22.56;17.14;97593.44;4995504;28;1067;-72
2024/01/14 04:28:15;;;;;;;;;;;;;;;22.47;17.40;97599.84;4979535;28;1588;-72
2024/01/14 04:30:41;;;;;;;;;;;;;;;22.36;17.50;97594.56;4979606;28;936;-72
2024/01/14 04:33:06;;;;;;;;;;;;;;;22.32;17.51;97599.56;4995503;28;1003;-72
2024/01/14 04:35:32;;;;;;;;;;;;;;;22.11;17.45;97594.66;4978992;28;1981;-72
2024/01/14 04:37:58;;;;;;;;;;;;;;;22.38;17.62;97596.13;4979313;28;765;-73
2024/01/14 04:40:23;;;;;;;;;;;;;;;22.40;17.29;97593.66;4995427;28;1146;-72
2024/01/14 04:42:49;;;;;;;;;;;;;;;22.27;17.71;97602.97;4978891;28;1532;-73
2024/01/14 04:45:14;;;;;;;;;;;;;;;22.16;17.43;97596.91;4962569;28;1141;-72
2024/01/14 04:47:40;;;;;;;;;;;;;;;22.08;17.75;97601.22;4993261;28;972;-73
2024/01/14 04:50:06;;;;;;;;;;;;;;;22.16;17.80;97605.41;4994780;28;1045;-73
2024/01/14 04:52:31;;;;;;;;;;;;;;;22.24;17.65;97603.13;4995353;28;1112;-72
2024/01/14 04:54:57;;;;;;;;;;;;;;;22.12;17.49;97586.94;4978793;28;1902;-73
2024/01/14 04:57:23;;;;;;;;;;;;;;;22.06;17.94;97598.03;4962679;28;1040;-72
2024/01/14 04:59:48;;;;;;;;;;;;;;;22.30;17.50;97599.22;4962783;28;1192;-72
2024/01/14 05:02:14;;;;;;;;;;;;;;;22.42;17.63;97591.91;4979063;28;998;-72
2024/01/14 05:04:40;;;;;;;;;;;;;;;22.38;17.45;97596.13;5009063;28;1016;-73
2024/01/14 05:07:05;;;;;;;;;;;;;;;22.47;17.32;97593.38;5014609;28;1078;-72
2024/01/14 05:09:31;;;;;;;;;;;;;;;22.49;17.52;97590.88;4958941;28;1001;-72
2024/01/14 05:11:56;;;;;;;;;;;;;;;22.39;17.46;97592.84;4959215;28;1107;-71
2024/01/14 05:14:22;;;;;;;;;;;;;;;22.32;17.76;97588.22;4975176;28;932;-72
2024/01/14 05:16:48;;;;;;;;;;;;;;;22.22;17.45;97589.38;4974904;28;1985;-72
2024/01/14 05:19:13;;;;;;;;;;;;;;;22.41;17.57;97584.69;4959280;28;752;-72
2024/01/14 05:21:39;;;;;;;;;;;;;;;22.38;17.43;97591.25;4975265;28;923;-72
2024/01/14 05:24:04;;;;;;;;;;;;;;;22.34;17.52;97585.72;4975074;28;819;-73
2024/01/14 05:26:30;;;;;;;;;;;;;;;22.41;17.52;97586.72;4975224;28;942;-72
2024/01/14 05:28:59;;;;;;;;;;;;;;;22.14;17.77;97582.41;4958843;28;1167;-72
2024/01/14 05:31:26;;;;;;;;;;;;;;;22.42;17.77;97574.13;4959155;28;1546;-72
2024/01/14 05:33:52;;;;;;;;;;;;;;;22.33;17.69;97580.53;4955603;29;1012;-72
2024/01/14 05:36:17;;;;;;;;;;;;;;;22.35;17.46;97570.31;4955489;29;1985;-72
2024/01/14 05:38:43;;;;;;;;;;;;;;;21.67;18.38;97574.69;4955382;29;922;-72
2024/01/14 05:41:11;;;;;;;;;;;;;;;21.25;18.84;97580.47;4939570;29;767;-72
2024/01/14 05:43:37;;;;;;;;;;;;;;;21.98;18.19;97571.22;4923880;29;828;-73
2024/01/14 05:46:02;;;;;;;;;;;;;;;22.39;17.39;97563.72;4944894;28;1112;-72
2024/01/14 05:48:28;;;;;;;;;;;;;;;22.36;17.69;97566.22;4994207;28;767;-72
2024/01/14 05:50:53;;;;;;;;;;;;;;;22.30;17.71;97568.06;4994235;28;916;-72
2024/01/14 05:53:19;;;;;;;;;;;;;;;22.42;17.63;97568.44;4994284;28;720;-72
2024/01/14 05:55:45;;;;;;;;;;;;;;;22.40;17.67;97559.63;4977880;28;1906;-72
2024/01/14 05:58:10;;;;;;;;;;;;;;;22.28;17.77;97564.91;4977507;28;1198;-72
2024/01/14 06:00:36;;;;;;;;;;;;;;;22.24;17.53;97554.94;4993920;28;749;-73
2024/01/14 06:03:02;;;;;;;;;;;;;;;22.28;17.66;97553.56;4978039;28;796;-72
2024/01/14 06:05:27;;;;;;;;;;;;;;;22.36;17.50;97554.88;4994326;28;882;-72
2024/01/14 06:07:53;;;;;;;;;;;;;;;22.42;17.61;97551.44;4993741;28;759;-72
2024/01/14 06:10:18;;;;;;;;;;;;;;;22.23;17.78;97557.00;4976469;28;1155;-73
2024/01/14 06:12:44;;;;;;;;;;;;;;;22.24;17.83;97547.22;4977486;28;823;-72
2024/01/14 06:15:10;;;;;;;;;;;;;;;22.38;17.63;97545.91;4977912;28;1911;-72
2024/01/14 06:17:35;;;;;;;;;;;;;;;22.26;17.79;97541.88;4977579;28;800;-72
2024/01/14 06:20:01;;;;;;;;;;;;;;;22.36;17.63;97549.19;4977677;28;1309;-72
2024/01/14 06:22:26;;;;;;;;;;;;;;;22.40;17.68;97556.78;4977469;28;799;-73
2024/01/14 06:24:52;;;;;;;;;;;;;;;22.28;17.78;97547.91;4977901;28;724;-72
2024/01/14 06:27:17;;;;;;;;;;;;;;;22.33;17.78;97552.19;4993862;28;797;-72
2024/01/14 06:29:43;;;;;;;;;;;;;;;22.45;17.43;97547.69;4977504;28;1395;-73
2024/01/14 06:32:09;;;;;;;;;;;;;;;22.53;17.54;97546.94;4977651;28;791;-72
2024/01/14 06:34:34;;;;;;;;;;;;;;;22.40;17.48;97537.75;4993816;28;929;-72
2024/01/14 06:37:00;;;;;;;;;;;;;;;22.33;17.85;97524.63;4974105;28;1982;-72
2024/01/14 06:39:25;;;;;;;;;;;;;;;22.19;17.82;97527.97;4958172;28;968;-73
2024/01/14 06:41:51;;;;;;;;;;;;;;;22.41;17.80;97532.88;4957955;28;904;-72
2024/01/14 06:44:17;;;;;;;;;;;;;;;22.19;17.98;97538.53;4958285;28;760;-72
2024/01/14 06:46:43;;;;;;;;;;;;;;;22.21;17.67;97536.81;4959244;28;861;-72
2024/01/14 06:49:09;;;;;;;;;;;;;;;22.52;17.75;97527.56;4993698;28;771;-72
2024/01/14 06:51:44;;;;;;;;;;;;;;;22.35;17.64;97524.94;4993359;28;808;-73
2024/01/14 06:54:10;;;;;;;;;;;;;;;22.28;17.76;97524.44;4974170;28;1235;-72
2024/01/14 06:56:42;;;;;;;;;;;;;;;22.52;17.51;97530.41;4941760;28;1910;-72
2024/01/14 06:59:11;;;;;;;;;;;;;;;22.39;17.56;97530.50;4941992;28;1368;-72
2024/01/14 07:01:36;;;;;;;;;;;;;;;22.51;17.60;97540.19;4957931;28;783;-72
2024/01/14 07:04:02;;;;;;;;;;;;;;;22.31;17.93;97541.28;4957696;28;779;-73
2024/01/14 07:06:28;;;;;;;;;;;;;;;22.49;17.73;97534.19;4974099;28;1150;-72
2024/01/14 07:08:53;;;;;;;;;;;;;;;22.63;17.21;97530.78;4974436;28;832;-72
2024/01/14 07:11:19;;;;;;;;;;;;;;;22.46;17.59;97530.22;4977518;28;881;-72
2024/01/14 07:13:45;;;;;;;;;;;;;;;22.33;17.89;97533.13;4965786;28;827;-73
2024/01/14 07:16:10;;;;;;;;;;;;;;;22.41;17.58;97521.53;4997084;28;1973;-72
2024/01/14 07:18:36;;;;;;;;;;;;;;;22.14;18.17;97520.06;4996729;28;903;-72
2024/01/14 07:21:02;;;;;;;;;;;;;;;22.22;17.96;97512.09;4980691;28;1191;-72
2024/01/14 07:23:28;;;;;;;;;;;;;;;22.42;17.60;97500.41;4980495;28;1133;-72
2024/01/14 07:25:53;;;;;;;;;;;;;;;22.43;17.86;97507.66;5029712;28;1201;-73
2024/01/14 07:28:19;;;;;;;;;;;;;;;22.31;17.69;97507.28;5038577;28;826;-72
2024/01/14 07:30:45;;;;;;;;;;;;;;;22.35;17.89;97499.44;5038333;28;735;-72
2024/01/14 07:33:10;;;;;;;;;;;;;;;22.27;18.04;97495.28;5020807;28;936;-73
2024/01/14 07:35:36;;;;;;;;;;;;;;;22.34;17.95;97495.03;4976868;28;1906;-73
2024/01/14 07:38:01;;;;;;;;;;;;;;;22.44;17.94;97492.25;4944878;28;1337;-72
2024/01/14 07:40:27;;;;;;;;;;;;;;;22.44;17.58;97497.94;4977012;28;797;-72
2024/01/14 07:42:53;;;;;;;;;;;;;;;22.18;17.78;97492.41;4976816;28;736;-73
2024/01/14 07:45:18;;;;;;;;;;;;;;;22.27;17.79;97489.59;4961186;28;1168;-72
2024/01/14 07:47:44;;;;;;;;;;;;;;;22.23;18.15;97488.19;4960884;28;1095;-72
2024/01/14 07:50:10;;;;;;;;;;;;;;;22.02;18.11;97489.72;4960622;28;847;-72
2024/01/14 07:52:35;;;;;;;;;;;;;;;21.85;18.21;97484.22;4960868;28;728;-72
2024/01/14 07:55:01;;;;;;;;;;;;;;;21.29;19.17;97501.13;4960817;28;843;-72
2024/01/14 07:57:26;;;;;;;;;;;;;;;21.97;18.47;97493.94;4976838;28;1922;-72
2024/01/14 07:59:52;;;;;;;;;;;;;;;22.19;18.09;97493.97;4977027;28;1221;-72
2024/01/14 08:02:18;;;;;;;;;;;;;;;22.50;17.71;97487.56;4944413;28;1314;-72
2024/01/14 08:04:44;;;;;;;;;;;;;;;22.41;17.56;97479.78;4944313;28;725;-72
2024/01/14 08:07:10;;;;;;;;;;;;;;;22.31;17.84;97478.94;4961126;28;1054;-73
2024/01/14 08:09:35;;;;;;;;;;;;;;;22.45;17.83;97479.66;5037838;28;782;-72
2024/01/14 08:12:01;;;;;;;;;;;;;;;22.53;17.55;97484.56;5019931;28;799;-72
2024/01/14 08:14:27;;;;;;;;;;;;;;;22.53;17.45;97490.25;5019839;28;1198;-71
2024/01/14 08:16:52;;;;;;;;;;;;;;;22.44;17.57;97490.22;5019798;28;1914;-72
2024/01/14 08:19:19;;;;;;;;;;;;;;;22.36;17.69;97483.22;4986285;28;878;-72
2024/01/14 08:21:44;;;;;;;;;;;;;;;22.22;17.86;97493.03;4998811;28;1406;-72
2024/01/14 08:24:10;;;;;;;;;;;;;;;22.35;17.81;97490.94;4998895;28;1100;-72
2024/01/14 08:26:43;;;;;;;;;;;;;;;22.23;17.90;97493.84;4999076;28;922;-72
2024/01/14 08:29:10;;;;;;;;;;;;;;;22.43;17.87;97479.31;4982733;28;1505;-72
2024/01/14 08:31:35;;;;;;;;;;;;;;;22.33;17.81;97482.13;4982646;28;1329;-73
2024/01/14 08:34:02;;;;;;;;;;;;;;;22.24;17.80;97482.06;4982589;28;830;-73
2024/01/14 08:36:27;;;;;;;;;;;;;;;22.35;17.89;97479.59;4999082;28;1910;-73
2024/01/14 08:38:53;;;;;;;;;;;;;;;22.38;17.65;97485.59;4998577;28;1089;-72
2024/01/14 08:41:24;;;;;;;;;;;;;;;22.42;17.64;97486.25;4982635;28;1093;-72
2024/01/14 08:43:50;;;;;;;;;;;;;;;22.35;17.71;97476.75;4998723;28;726;-72
2024/01/14 08:46:16;;;;;;;;;;;;;;;22.45;17.94;97468.31;4978937;28;826;-73
2024/01/14 08:48:44;;;;;;;;;;;;;;;22.41;17.97;97482.63;4978945;28;887;-72
2024/01/14 08:51:10;;;;;;;;;;;;;;;22.34;17.83;97460.22;4962832;28;972;-73
2024/01/14 08:53:35;;;;;;;;;;;;;;;22.23;17.95;97457.81;4995155;28;826;-72
2024/01/14 08:56:01;;;;;;;;;;;;;;;22.29;17.79;97447.44;4962772;28;2245;-73
2024/01/14 08:58:27;;;;;;;;;;;;;;;21.59;18.47;97457.25;4982638;28;1159;-72
2024/01/14 09:00:54;;;;;;;;;;;;;;;21.81;18.31;97458.09;4998234;28;947;-72
2024/01/14 09:03:20;;;;;;;;;;;;;;;22.00;18.35;97452.56;4959057;28;978;-72
2024/01/14 09:05:45;;;;;;;;;;;;;;;22.37;17.76;97447.94;4959069;28;1078;-72
2024/01/14 09:08:12;;;;;;;;;;;;;;;22.40;17.64;97437.75;4943479;28;1192;-73
2024/01/14 09:10:37;;;;;;;;;;;;;;;22.34;18.10;97444.00;4943680;28;1141;-72
2024/01/14 09:13:03;;;;;;;;;;;;;;;22.22;17.85;97444.88;4958996;28;906;-72
2024/01/14 09:15:29;;;;;;;;;;;;;;;22.28;17.85;97436.59;4936731;29;1939;-72
2024/01/14 09:17:54;;;;;;;;;;;;;;;22.41;17.65;97434.44;4922147;29;1046;-72
2024/01/14 09:20:21;;;;;;;;;;;;;;;22.47;17.78;97426.13;4918196;29;1053;-72
2024/01/14 09:22:47;;;;;;;;;;;;;;;22.34;18.02;97438.34;4918223;29;836;-73
2024/01/14 09:25:13;;;;;;;;;;;;;;;22.35;18.04;97434.25;4901834;29;1046;-72
2024/01/14 09:27:38;;;;;;;;;;;;;;;22.49;17.59;97420.78;4902367;29;837;-72
2024/01/14 09:30:04;;;;;;;;;;;;;;;22.40;18.02;97424.34;4902469;29;806;-72
2024/01/14 09:32:30;;;;;;;;;;;;;;;22.38;18.04;97409.06;4901884;29;1240;-72
2024/01/14 09:34:55;;;;;;;;;;;;;;;22.43;17.64;97414.91;4916303;29;851;-73
2024/01/14 09:37:21;;;;;;;;;;;;;;;22.41;17.88;97405.31;4936921;29;1910;-73
2024/01/14 09:39:47;;;;;;;;;;;;;;;22.44;18.05;97393.84;4920970;29;1143;-72
2024/01/14 09:42:22;;;;;;;;;;;;;;;22.26;18.00;97394.50;4920924;29;1153;-72
2024/01/14 09:44:48;;;;;;;;;;;;;;;22.44;17.71;97384.53;4920967;29;975;-72
2024/01/14 09:47:14;;;;;;;;;;;;;;;22.56;17.77;97377.97;4935679;28;1280;-73
2024/01/14 09:49:41;;;;;;;;;;;;;;;22.29;18.20;97379.44;4959002;28;1069;-73
2024/01/14 09:52:07;;;;;;;;;;;;;;;22.31;17.86;97379.75;4959237;28;787;-73
2024/01/14 09:54:32;;;;;;;;;;;;;;;22.40;17.76;97392.38;4959010;28;716;-72
2024/01/14 09:56:58;;;;;;;;;;;;;;;22.09;18.14;97381.81;4974690;28;1907;-72
2024/01/14 09:59:24;;;;;;;;;;;;;;;21.67;18.60;97384.19;4958935;28;1114;-73
2024/01/14 10:01:49;;;;;;;;;;;;;;;21.58;19.01;97373.59;4952913;28;1199;-73
2024/01/14 10:04:16;;;;;;;;;;;;;;;21.87;18.42;97364.06;5018678;28;818;-72
2024/01/14 10:06:43;;;;;;;;;;;;;;;22.23;18.21;97352.94;5035864;28;829;-72
2024/01/14 10:09:09;;;;;;;;;;;;;;;22.43;17.87;97360.25;5018698;28;732;-73
2024/01/14 10:11:35;;;;;;;;;;;;;;;22.31;18.17;97357.06;5017901;28;849;-72
2024/01/14 10:14:02;;;;;;;;;;;;;;;22.16;18.27;97358.88;5002309;28;901;-73
2024/01/14 10:16:28;;;;;;;;;;;;;;;22.29;18.15;97356.75;5001799;28;1902;-72
2024/01/14 10:18:55;;;;;;;;;;;;;;;22.23;18.03;97355.78;5018328;28;807;-72
2024/01/14 10:21:21;;;;;;;;;;;;;;;22.16;18.29;97350.38;4974482;28;903;-72
2024/01/14 10:23:46;;;;;;;;;;;;;;;22.27;18.13;97350.75;4958772;28;936;-73
2024/01/14 10:26:12;;;;;;;;;;;;;;;22.26;18.04;97340.66;4942631;28;1105;-72
2024/01/14 10:28:38;;;;;;;;;;;;;;;22.31;17.91;97337.22;4942675;28;1106;-72
2024/01/14 10:31:05;;;;;;;;;;;;;;;22.43;18.02;97331.91;4958715;28;1226;-73
2024/01/14 10:33:31;;;;;;;;;;;;;;;22.18;18.29;97319.56;4920081;29;1213;-72
2024/01/14 10:35:56;;;;;;;;;;;;;;;22.15;18.36;97325.34;4904780;29;1997;-72
2024/01/14 10:38:22;;;;;;;;;;;;;;;22.36;17.96;97322.44;4919887;29;904;-73
2024/01/14 10:40:48;;;;;;;;;;;;;;;22.48;17.85;97323.59;4920472;29;990;-72
2024/01/14 10:43:13;;;;;;;;;;;;;;;22.56;17.63;97315.59;4920545;29;867;-72
2024/01/14 10:45:39;;;;;;;;;;;;;;;22.24;18.34;97314.84;4923866;29;773;-72
2024/01/14 10:48:06;;;;;;;;;;;;;;;22.51;17.87;97310.53;4924043;29;928;-72
2024/01/14 10:50:32;;;;;;;;;;;;;;;22.27;18.05;97319.56;4923905;29;956;-72
2024/01/14 10:52:57;;;;;;;;;;;;;;;22.04;18.21;97305.91;4937575;28;1126;-72
2024/01/14 10:55:26;;;;;;;;;;;;;;;22.22;18.27;97300.34;4977978;28;1977;-72
2024/01/14 10:57:52;;;;;;;;;;;;;;;22.43;17.89;97309.22;4958354;28;1036;-73
2024/01/14 11:00:17;;;;;;;;;;;;;;;22.34;18.12;97301.50;4942579;29;868;-72
2024/01/14 11:02:43;;;;;;;;;;;;;;;21.62;19.04;97295.00;4958622;29;968;-72
2024/01/14 11:05:08;;;;;;;;;;;;;;;21.54;18.95;97285.16;4926972;29;967;-72
2024/01/14 11:07:34;;;;;;;;;;;;;;;21.75;18.85;97283.56;4942720;29;1209;-72
2024/01/14 11:10:02;;;;;;;;;;;;;;;22.36;18.18;97294.09;4946751;28;944;-73
2024/01/14 11:12:31;;;;;;;;;;;;;;;22.29;18.26;97282.28;4981399;28;786;-72
2024/01/14 11:15:01;;;;;;;;;;;;;;;22.34;18.21;97282.47;4997631;28;771;-73
2024/01/14 11:17:33;;;;;;;;;;;;;;;22.30;18.08;97287.47;4981006;28;1903;-72
2024/01/14 11:19:59;;;;;;;;;;;;;;;22.22;18.31;97288.22;4997425;28;751;-72
2024/01/14 11:22:26;;;;;;;;;;;;;;;22.22;18.00;97272.00;4980639;28;821;-73
2024/01/14 11:24:52;;;;;;;;;;;;;;;22.51;17.97;97265.19;4938589;29;1177;-73
2024/01/14 11:27:18;;;;;;;;;;;;;;;22.48;17.69;97269.72;4938916;29;824;-72
2024/01/14 11:29:43;;;;;;;;;;;;;;;22.54;17.77;97267.09;4971331;28;780;-72
2024/01/14 11:32:20;;;;;;;;;;;;;;;22.11;18.43;97254.66;4957834;29;1006;-73
2024/01/14 11:34:46;;;;;;;;;;;;;;;22.31;18.19;97257.09;4958006;29;866;-72
2024/01/14 11:37:35;;;;;;;;;;;;;;;21.72;18.60;97240.00;4957716;29;1894;-72
2024/01/14 11:40:06;;;;;;;;;;;;;;;22.02;18.58;97246.09;4922779;29;929;-73
2024/01/14 11:42:35;;;;;;;;;;;;;;;22.44;18.12;97242.81;4938727;29;1294;-72
2024/01/14 11:45:01;;;;;;;;;;;;;;;22.27;18.08;97245.88;4938737;29;972;-72
2024/01/14 11:47:36;;;;;;;;;;;;;;;22.32;18.28;97253.00;4922671;29;956;-72
2024/01/14 11:50:02;;;;;;;;;;;;;;;22.12;18.46;97246.94;4922530;29;920;-72
2024/01/14 11:52:28;;;;;;;;;;;;;;;22.42;18.02;97251.75;4922604;29;916;-72
2024/01/14 11:54:54;;;;;;;;;;;;;;;22.47;17.83;97247.53;4940447;29;957;-72
2024/01/14 11:57:25;;;;;;;;;;;;;;;22.34;18.21;97256.94;4957507;29;1976;-73
2024/01/14 11:59:51;;;;;;;;;;;;;;;22.28;18.09;97258.81;4941388;29;1207;-73
2024/01/14 12:02:17;;;;;;;;;;;;;;;21.76;18.74;97251.97;4944332;28;1279;-73
2024/01/14 12:04:43;;;;;;;;;;;;;;;21.68;18.73;97255.53;4961077;28;1221;-72
2024/01/14 12:07:08;;;;;;;;;;;;;;;21.93;18.48;97240.41;4976929;28;772;-72
2024/01/14 12:09:34;;;;;;;;;;;;;;;22.24;18.19;97246.84;4938158;29;1079;-73
2024/01/14 12:12:04;;;;;;;;;;;;;;;22.35;17.98;97235.84;4922576;29;1087;-73
2024/01/14 12:14:29;;;;;;;;;;;;;;;22.12;18.16;97239.22;4922317;29;1262;-72
2024/01/14 12:16:55;;;;;;;;;;;;;;;22.07;18.29;97231.31;4971954;28;1990;-72
2024/01/14 12:19:20;;;;;;;;;;;;;;;21.96;18.32;97236.63;4960636;28;892;-72
2024/01/14 12:21:46;;;;;;;;;;;;;;;22.38;18.11;97228.44;4976826;28;850;-73
2024/01/14 12:24:12;;;;;;;;;;;;;;;22.32;18.11;97233.94;4976813;28;1085;-72
2024/01/14 12:26:37;;;;;;;;;;;;;;;22.24;18.31;97229.84;4976332;28;878;-73
2024/01/14 12:29:04;;;;;;;;;;;;;;;22.18;18.41;97231.72;4976472;28;815;-72
2024/01/14 12:31:31;;;;;;;;;;;;;;;22.34;18.03;97242.00;4960266;28;1011;-73
2024/01/14 12:33:57;;;;;;;;;;;;;;;22.39;17.88;97229.25;4937650;29;957;-73
2024/01/14 12:36:22;;;;;;;;;;;;;;;22.50;18.13;97240.91;4937821;29;1914;-72
2024/01/14 12:38:48;;;;;;;;;;;;;;;22.33;17.97;97227.03;4938055;29;941;-73
2024/01/14 12:41:14;;;;;;;;;;;;;;;22.52;18.07;97221.38;4918706;29;1126;-72
2024/01/14 12:43:40;;;;;;;;;;;;;;;22.33;18.04;97220.56;4918516;29;876;-72
2024/01/14 12:46:06;;;;;;;;;;;;;;;22.29;18.15;97217.88;4910273;28;955;-72
2024/01/14 12:48:31;;;;;;;;;;;;;;;22.30;18.37;97224.34;4976179;28;950;-72
2024/01/14 12:51:00;;;;;;;;;;;;;;;22.43;18.00;97229.88;4943669;28;876;-73
2024/01/14 12:53:26;;;;;;;;;;;;;;;22.23;18.41;97219.75;4959784;28;949;-72
2024/01/14 12:55:52;;;;;;;;;;;;;;;22.48;17.88;97232.09;4975795;28;1973;-72